createdAt,value
2018-04-13T00:02:02.273Z,56.80
2018-04-13T00:04:29.807Z,56.40
2018-04-13T00:06:57.357Z,56.50
2018-04-13T00:09:25.705Z,56.80
2018-04-13T00:11:59.162Z,56.70
2018-04-13T00:14:27.486Z,56.70
2018-04-13T00:16:55.096Z,56.70
2018-04-13T00:19:22.674Z,56.70
2018-04-13T00:21:55.998Z,56.70
2018-04-13T00:24:24.304Z,56.70
2018-04-13T00:26:51.807Z,56.70
2018-04-13T00:29:31.181Z,56.80
2018-04-13T00:31:58.884Z,56.80
2018-04-13T00:34:32.773Z,56.90
2018-04-13T00:37:00.271Z,56.90
2018-04-13T00:39:39.634Z,57.10
2018-04-13T00:42:07.948Z,56.80
2018-04-13T00:44:35.452Z,56.80
2018-04-13T00:47:02.965Z,56.90
2018-04-13T00:49:37.295Z,56.70
2018-04-13T00:52:11.233Z,56.80
2018-04-13T00:54:45.553Z,56.80
2018-04-13T00:57:18.982Z,56.90
2018-04-13T00:59:46.573Z,56.80
2018-04-13T01:02:14.101Z,56.80
2018-04-13T01:04:42.419Z,56.80
2018-04-13T01:07:09.972Z,56.80
2018-04-13T01:09:37.532Z,56.80
2018-04-13T01:12:05.853Z,56.90
2018-04-13T01:14:33.403Z,56.90
2018-04-13T01:17:00.959Z,57.20
2018-04-13T01:19:29.240Z,57.40
2018-04-13T01:21:56.733Z,57.40
2018-04-13T01:24:24.294Z,56.90
2018-04-13T01:26:51.783Z,57.10
2018-04-13T01:29:19.332Z,57.40
2018-04-13T01:31:53.411Z,57.20
2018-04-13T01:34:21.131Z,57.20
2018-04-13T01:36:49.430Z,57.50
2018-04-13T01:39:16.960Z,57.50
2018-04-13T01:41:44.467Z,57.60
2018-04-13T01:44:18.711Z,57.40
2018-04-13T01:46:52.142Z,57.50
2018-04-13T01:49:19.707Z,57.60
2018-04-13T01:51:53.269Z,57.60
2018-04-13T01:54:21.601Z,57.60
2018-04-13T01:56:49.187Z,57.60
2018-04-13T01:59:16.771Z,57.60
2018-04-13T02:01:44.262Z,57.70
2018-04-13T02:04:11.826Z,57.50
2018-04-13T02:06:45.048Z,57.60
2018-04-13T02:09:18.313Z,57.70
2018-04-13T02:11:45.848Z,57.60
2018-04-13T02:14:14.142Z,57.60
2018-04-13T02:16:41.708Z,57.60
2018-04-13T02:19:10.000Z,57.50
2018-04-13T02:21:37.609Z,57.40
2018-04-13T02:24:05.200Z,57.50
2018-04-13T02:26:32.883Z,57.60
2018-04-13T02:29:06.026Z,57.60
2018-04-13T02:31:33.585Z,57.40
2018-04-13T02:34:01.841Z,57.50
2018-04-13T02:36:35.197Z,57.50
2018-04-13T02:39:02.704Z,57.50
2018-04-13T02:41:30.220Z,57.70
2018-04-13T02:44:04.163Z,57.80
2018-04-13T02:46:31.657Z,57.80
2018-04-13T02:48:59.174Z,58.00
2018-04-13T02:51:27.480Z,57.70
2018-04-13T02:53:55.167Z,57.80
2018-04-13T02:56:28.678Z,57.80
2018-04-13T02:58:56.209Z,57.80
2018-04-13T03:01:23.802Z,57.70
2018-04-13T03:03:51.329Z,57.70
2018-04-13T03:06:18.868Z,57.70
2018-04-13T03:08:46.391Z,57.60
2018-04-13T03:11:13.944Z,57.60
2018-04-13T03:13:41.512Z,57.60
2018-04-13T03:16:09.805Z,57.60
2018-04-13T03:18:37.305Z,57.70
2018-04-13T03:21:17.307Z,57.90
2018-04-13T03:23:50.841Z,57.70
2018-04-13T03:26:18.441Z,57.90
2018-04-13T03:28:45.979Z,57.80
2018-04-13T03:31:13.501Z,57.70
2018-04-13T03:33:41.816Z,57.90
2018-04-13T03:36:09.310Z,57.90
2018-04-13T03:38:36.839Z,58.00
2018-04-13T03:41:10.229Z,58.00
2018-04-13T03:43:38.633Z,58.00
2018-04-13T03:46:06.928Z,57.90
2018-04-13T03:48:34.431Z,57.90
2018-04-13T03:51:01.954Z,57.90
2018-04-13T03:53:30.218Z,57.80
2018-04-13T03:55:57.774Z,57.80
2018-04-13T03:58:25.272Z,57.80
2018-04-13T04:00:52.806Z,57.80
2018-04-13T04:03:20.307Z,57.80
2018-04-13T04:05:47.918Z,57.90
2018-04-13T04:08:21.415Z,57.90
2018-04-13T04:10:49.716Z,57.70
2018-04-13T04:13:17.985Z,57.70
2018-04-13T04:15:51.405Z,57.70
2018-04-13T04:18:19.700Z,57.70
2018-04-13T04:20:59.191Z,57.70
2018-04-13T04:23:38.742Z,57.50
2018-04-13T04:26:21.868Z,57.60
2018-04-13T04:28:49.631Z,57.70
2018-04-13T04:31:17.362Z,57.60
2018-04-13T04:33:44.910Z,57.80
2018-04-13T04:36:12.487Z,57.80
2018-04-13T04:38:40.106Z,57.80
2018-04-13T04:41:08.387Z,57.80
2018-04-13T04:43:36.685Z,57.80
2018-04-13T04:46:11.034Z,57.90
2018-04-13T04:48:38.573Z,57.90
2018-04-13T04:51:06.098Z,57.90
2018-04-13T04:53:33.644Z,58.50
2018-04-13T04:56:07.176Z,57.40
2018-04-13T04:58:34.684Z,55.60
2018-04-13T05:01:07.853Z,55.10
2018-04-13T05:03:35.372Z,54.90
2018-04-13T05:06:03.752Z,54.50
2018-04-13T05:08:37.183Z,54.50
2018-04-13T05:11:05.580Z,53.80
2018-04-13T05:13:33.852Z,53.70
2018-04-13T05:16:01.559Z,53.70
2018-04-13T05:18:35.018Z,53.60
2018-04-13T05:21:08.120Z,53.50
2018-04-13T05:23:35.597Z,53.70
2018-04-13T05:26:03.119Z,54.20
2018-04-13T05:28:30.638Z,54.60
2018-04-13T05:31:04.011Z,55.00
2018-04-13T05:33:31.529Z,55.40
2018-04-13T05:35:59.102Z,55.70
2018-04-13T05:38:27.386Z,56.20
2018-04-13T05:41:06.648Z,56.00
2018-04-13T05:43:40.751Z,56.30
2018-04-13T05:46:08.281Z,56.30
2018-04-13T05:48:35.950Z,56.20
2018-04-13T05:51:09.959Z,56.60
2018-04-13T05:53:37.518Z,57.10
2018-04-13T05:56:05.076Z,56.60
2018-04-13T05:58:33.504Z,56.90
2018-04-13T06:01:01.045Z,56.90
2018-04-13T06:03:29.337Z,56.90
2018-04-13T06:06:08.722Z,56.90
2018-04-13T06:08:36.971Z,57.10
2018-04-13T06:11:05.274Z,57.20
2018-04-13T06:13:33.027Z,57.20
2018-04-13T06:16:00.533Z,57.20
2018-04-13T06:18:28.028Z,57.40
2018-04-13T06:21:01.510Z,57.40
2018-04-13T06:23:29.016Z,57.40
2018-04-13T06:25:56.542Z,57.40
2018-04-13T06:28:30.098Z,57.30
2018-04-13T06:30:57.661Z,57.40
2018-04-13T06:33:25.149Z,57.40
2018-04-13T06:35:52.673Z,57.50
2018-04-13T06:38:20.205Z,57.60
2018-04-13T06:40:47.717Z,57.70
2018-04-13T06:43:26.948Z,57.60
2018-04-13T06:46:00.767Z,57.90
2018-04-13T06:48:28.330Z,57.90
2018-04-13T06:51:02.430Z,59.20
2018-04-13T06:53:29.944Z,59.20
2018-04-13T06:55:57.520Z,60.60
2018-04-13T06:58:25.038Z,61.10
2018-04-13T07:00:52.647Z,62.50
2018-04-13T07:03:26.165Z,63.30
2018-04-13T07:05:53.654Z,63.90
2018-04-13T07:08:21.282Z,64.70
2018-04-13T07:10:54.500Z,65.90
2018-04-13T07:13:28.725Z,67.80
2018-04-13T07:16:02.986Z,68.00
2018-04-13T07:18:30.522Z,67.90
2018-04-13T07:20:58.872Z,68.90
2018-04-13T07:23:26.511Z,68.90
2018-04-13T07:25:54.024Z,69.20
2018-04-13T07:28:21.552Z,69.20
2018-04-13T07:30:54.944Z,69.50
2018-04-13T07:33:23.219Z,70.20
2018-04-13T07:35:50.728Z,70.20
2018-04-13T07:38:18.249Z,70.60
2018-04-13T07:40:51.579Z,70.80
2018-04-13T07:43:19.117Z,71.50
2018-04-13T07:45:46.648Z,71.30
2018-04-13T07:48:19.817Z,71.50
2018-04-13T07:50:48.095Z,72.30
2018-04-13T07:53:15.652Z,72.20
2018-04-13T07:55:43.263Z,73.00
2018-04-13T07:58:11.655Z,72.80
2018-04-13T08:00:39.319Z,72.80
2018-04-13T08:03:07.590Z,73.70
2018-04-13T08:05:35.134Z,73.60
2018-04-13T08:08:02.652Z,74.70
2018-04-13T08:10:30.969Z,76.40
2018-04-13T08:13:04.025Z,76.40
2018-04-13T08:15:38.240Z,75.70
2018-04-13T08:18:05.761Z,75.60
2018-04-13T08:20:39.342Z,76.10
2018-04-13T08:23:13.589Z,75.60
2018-04-13T08:25:41.897Z,76.10
2018-04-13T08:28:09.396Z,76.20
2018-04-13T08:30:36.939Z,76.30
2018-04-13T08:33:22.193Z,76.90
2018-04-13T08:35:50.499Z,76.10
2018-04-13T08:38:17.987Z,76.10
2018-04-13T08:40:45.549Z,76.80
2018-04-13T08:43:13.117Z,78.10
2018-04-13T08:45:40.741Z,77.30
2018-04-13T08:48:08.341Z,75.90
2018-04-13T08:50:42.470Z,74.40
2018-04-13T08:53:10.053Z,74.40
2018-04-13T08:55:37.564Z,73.90
2018-04-13T08:58:05.204Z,76.10
2018-04-13T09:00:32.749Z,75.20
2018-04-13T09:03:06.760Z,73.70
2018-04-13T09:05:34.343Z,73.60
2018-04-13T09:08:08.561Z,72.60
2018-04-13T09:10:36.879Z,72.50
2018-04-13T09:13:10.358Z,72.50
2018-04-13T09:15:38.632Z,71.10
2018-04-13T09:18:18.116Z,71.30
2018-04-13T09:20:46.420Z,72.00
2018-04-13T09:23:20.562Z,73.40
2018-04-13T09:25:48.083Z,72.60
2018-04-13T09:28:15.616Z,71.50
2018-04-13T09:30:43.145Z,71.10
2018-04-13T09:33:11.455Z,69.50
2018-04-13T09:35:44.616Z,69.40
2018-04-13T09:38:12.167Z,69.80
2018-04-13T09:40:39.721Z,69.00
2018-04-13T09:43:07.246Z,69.40
2018-04-13T09:45:41.221Z,69.60
2018-04-13T09:48:08.916Z,69.60
2018-04-13T09:50:36.477Z,69.60
2018-04-13T09:53:04.012Z,69.90
2018-04-13T09:55:31.546Z,69.20
2018-04-13T09:57:59.101Z,68.80
2018-04-13T10:00:30.575Z,69.50
2018-04-13T10:03:18.966Z,69.20
2018-04-13T10:05:53.405Z,68.70
2018-04-13T10:08:26.903Z,68.70
2018-04-13T10:10:54.806Z,68.40
2018-04-13T10:13:22.447Z,68.10
2018-04-13T10:15:50.721Z,68.30
2018-04-13T10:18:18.322Z,68.60
2018-04-13T10:20:52.505Z,67.90
2018-04-13T10:23:20.062Z,67.90
2018-04-13T10:25:47.594Z,67.40
2018-04-13T10:28:15.862Z,68.10
2018-04-13T10:30:49.975Z,68.40
2018-04-13T10:33:23.485Z,68.40
2018-04-13T10:35:51.035Z,68.00
2018-04-13T10:38:18.590Z,68.10
2018-04-13T10:40:46.175Z,68.50
2018-04-13T10:43:13.728Z,68.30
2018-04-13T10:45:41.222Z,68.50
2018-04-13T10:48:09.016Z,68.50
2018-04-13T10:50:36.567Z,68.40
2018-04-13T10:53:04.123Z,68.60
2018-04-13T10:55:43.227Z,69.10
2018-04-13T10:58:17.587Z,70.40
2018-04-13T11:00:45.116Z,70.40
2018-04-13T11:03:19.146Z,71.10
2018-04-13T11:05:46.652Z,71.30
2018-04-13T11:08:14.185Z,72.30
2018-04-13T11:10:53.491Z,71.60
2018-04-13T11:13:21.004Z,72.10
2018-04-13T11:15:48.568Z,72.20
2018-04-13T11:18:24.259Z,71.50
2018-04-13T11:20:53.145Z,70.90
2018-04-13T11:23:20.709Z,70.90
2018-04-13T11:25:48.259Z,71.30
2018-04-13T11:28:21.486Z,70.40
2018-04-13T11:30:48.998Z,70.10
2018-04-13T11:33:16.705Z,69.70
2018-04-13T11:35:50.144Z,69.70
2018-04-13T11:38:23.736Z,69.90
2018-04-13T11:40:51.255Z,70.00
2018-04-13T11:43:18.793Z,69.30
2018-04-13T11:45:46.300Z,69.80
2018-04-13T11:48:13.838Z,69.40
2018-04-13T11:50:41.371Z,69.10
2018-04-13T11:53:20.460Z,68.90
2018-04-13T11:55:48.766Z,66.60
2018-04-13T11:58:22.156Z,66.50
2018-04-13T12:01:02.222Z,63.70
2018-04-13T12:03:30.726Z,63.40
2018-04-13T12:05:59.030Z,62.90
2018-04-13T12:08:26.601Z,62.90
2018-04-13T12:10:54.163Z,62.60
2018-04-13T12:13:22.453Z,61.80
2018-04-13T12:15:50.703Z,61.20
2018-04-13T12:18:18.210Z,61.10
2018-04-13T12:20:46.494Z,59.90
2018-04-13T12:23:14.767Z,59.00
2018-04-13T12:25:42.309Z,59.00
2018-04-13T12:28:09.920Z,57.80
2018-04-13T12:30:38.201Z,58.10
2018-04-13T12:33:05.788Z,58.00
2018-04-13T12:35:34.080Z,57.70
2018-04-13T12:38:02.358Z,56.90
2018-04-13T12:40:30.725Z,56.40
2018-04-13T12:42:58.243Z,56.30
2018-04-13T12:45:25.758Z,56.20
2018-04-13T12:47:53.296Z,56.00
2018-04-13T12:50:20.787Z,55.90
2018-04-13T12:52:48.416Z,55.50
2018-04-13T12:55:16.772Z,55.30
2018-04-13T12:57:44.384Z,55.20
2018-04-13T13:00:12.680Z,55.10
2018-04-13T13:02:40.185Z,55.10
2018-04-13T13:05:07.790Z,55.00
2018-04-13T13:07:35.400Z,55.20
2018-04-13T13:10:02.978Z,55.30
2018-04-13T13:12:30.536Z,55.80
2018-04-13T13:14:58.072Z,55.80
2018-04-13T13:17:25.696Z,55.80
2018-04-13T13:19:53.225Z,55.50
2018-04-13T13:22:20.761Z,55.40
2018-04-13T13:24:48.489Z,55.40
2018-04-13T13:27:16.830Z,55.10
2018-04-13T13:29:44.308Z,55.00
2018-04-13T13:32:11.893Z,54.70
2018-04-13T13:34:39.436Z,54.70
2018-04-13T13:37:06.942Z,54.70
2018-04-13T13:39:34.467Z,54.20
2018-04-13T13:42:01.989Z,53.80
2018-04-13T13:44:30.297Z,53.30
2018-04-13T13:46:57.883Z,53.10
2018-04-13T13:49:25.407Z,52.70
2018-04-13T13:51:53.000Z,52.00
2018-04-13T13:54:21.266Z,52.10
2018-04-13T13:56:48.801Z,52.00
2018-04-13T13:59:16.344Z,51.70
2018-04-13T14:01:43.967Z,51.60
2018-04-13T14:04:11.469Z,51.50
2018-04-13T14:06:39.768Z,52.10
2018-04-13T14:09:07.277Z,52.10
2018-04-13T14:11:34.851Z,52.20
2018-04-13T14:14:02.362Z,51.60
2018-04-13T14:16:30.652Z,50.50
2018-04-13T14:18:58.962Z,49.00
2018-04-13T14:21:26.699Z,49.00
2018-04-13T14:23:54.197Z,48.40
2018-04-13T14:26:22.509Z,47.40
2018-04-13T14:28:50.082Z,47.40
2018-04-13T14:31:17.640Z,47.60
2018-04-13T14:33:45.220Z,47.10
2018-04-13T14:36:12.747Z,47.30
2018-04-13T14:38:45.592Z,47.00
2018-04-13T14:41:13.127Z,46.20
2018-04-13T14:43:42.541Z,45.90
2018-04-13T14:46:10.179Z,45.40
2018-04-13T14:48:37.698Z,44.90
2018-04-13T14:51:06.377Z,44.90
2018-04-13T14:53:33.976Z,44.80
2018-04-13T14:56:01.519Z,44.90
2018-04-13T14:58:29.822Z,45.40
2018-04-13T15:00:58.134Z,45.10
2018-04-13T15:03:25.713Z,45.10
2018-04-13T15:05:53.234Z,45.30
2018-04-13T15:08:20.742Z,45.00
2018-04-13T15:10:48.278Z,44.90
2018-04-13T15:13:16.579Z,45.50
2018-04-13T15:15:44.104Z,45.00
2018-04-13T15:18:11.837Z,44.90
2018-04-13T15:20:39.352Z,44.40
2018-04-13T15:23:06.870Z,44.60
2018-04-13T15:25:35.171Z,45.20
2018-04-13T15:28:04.188Z,45.00
2018-04-13T15:30:31.703Z,45.00
2018-04-13T15:32:59.250Z,45.10
2018-04-13T15:35:26.908Z,45.20
2018-04-13T15:37:54.411Z,45.60
2018-04-13T15:40:22.094Z,45.90
2018-04-13T15:42:49.599Z,45.00
2018-04-13T15:45:17.960Z,48.70
2018-04-13T15:47:45.500Z,48.60
2018-04-13T15:50:13.116Z,51.30
2018-04-13T15:52:40.723Z,53.30
2018-04-13T15:55:08.295Z,54.40
2018-04-13T15:57:36.076Z,55.20
2018-04-13T16:00:03.619Z,55.90
2018-04-13T16:02:31.928Z,57.30
2018-04-13T16:05:00.189Z,57.00
2018-04-13T16:07:27.894Z,57.00
2018-04-13T16:09:55.441Z,57.20
2018-04-13T16:12:23.721Z,56.90
2018-04-13T16:14:52.049Z,57.40
2018-04-13T16:17:19.695Z,57.50
2018-04-13T16:19:48.077Z,57.90
2018-04-13T16:22:16.437Z,58.20
2018-04-13T16:24:44.014Z,58.00
2018-04-13T16:27:11.590Z,58.20
2018-04-13T16:29:39.099Z,57.50
2018-04-13T16:32:07.360Z,60.20
2018-04-13T16:34:34.907Z,60.20
2018-04-13T16:37:02.485Z,62.50
2018-04-13T16:39:30.138Z,62.60
2018-04-13T16:41:58.214Z,65.20
2018-04-13T16:44:25.952Z,69.70
2018-04-13T16:46:53.473Z,68.00
2018-04-13T16:49:21.022Z,68.10
2018-04-13T16:51:48.565Z,70.30
2018-04-13T16:54:16.067Z,70.90
2018-04-13T16:56:43.608Z,71.30
2018-04-13T16:59:11.108Z,71.20
2018-04-13T17:01:38.695Z,73.00
2018-04-13T17:04:06.335Z,75.10
2018-04-13T17:06:34.719Z,74.80
2018-04-13T17:09:03.037Z,73.70
2018-04-13T17:11:30.647Z,73.60
2018-04-13T17:13:58.277Z,73.50
2018-04-13T17:16:25.825Z,75.10
2018-04-13T17:18:53.428Z,75.80
2018-04-13T17:21:20.974Z,74.20
2018-04-13T17:23:49.257Z,77.30
2018-04-13T17:26:17.557Z,78.80
2018-04-13T17:28:45.840Z,79.20
2018-04-13T17:31:14.234Z,77.20
2018-04-13T17:33:42.633Z,76.70
2018-04-13T17:36:10.935Z,77.10
2018-04-13T17:38:38.519Z,77.10
2018-04-13T17:41:06.082Z,77.80
2018-04-13T17:43:33.749Z,77.50
2018-04-13T17:46:01.317Z,79.20
2018-04-13T17:48:28.967Z,78.40
2018-04-13T17:50:57.329Z,76.30
2018-04-13T17:53:24.834Z,76.30
2018-04-13T17:55:53.146Z,74.10
2018-04-13T17:58:20.725Z,74.10
2018-04-13T18:00:48.258Z,71.40
2018-04-13T18:03:16.581Z,72.20
2018-04-13T18:05:44.447Z,72.20
2018-04-13T18:08:12.019Z,72.50
2018-04-13T18:10:39.628Z,73.90
2018-04-13T18:13:07.913Z,75.10
2018-04-13T18:15:35.422Z,76.70
2018-04-13T18:18:02.937Z,78.00
2018-04-13T18:20:30.472Z,80.00
2018-04-13T18:22:58.776Z,81.20
2018-04-13T18:25:27.251Z,82.70
2018-04-13T18:27:55.549Z,82.20
2018-04-13T18:30:23.981Z,79.70
2018-04-13T18:32:51.671Z,80.30
2018-04-13T18:35:19.220Z,79.20
2018-04-13T18:37:46.773Z,80.30
2018-04-13T18:40:14.366Z,82.40
2018-04-13T18:42:41.967Z,82.50
2018-04-13T18:45:09.527Z,82.70
2018-04-13T18:47:37.040Z,83.80
2018-04-13T18:50:05.371Z,83.90
2018-04-13T18:52:32.862Z,83.80
2018-04-13T18:55:00.405Z,84.30
2018-04-13T18:57:27.953Z,84.00
2018-04-13T18:59:56.383Z,84.60
2018-04-13T19:02:23.902Z,84.60
2018-04-13T19:04:52.166Z,82.30
2018-04-13T19:07:19.692Z,82.20
2018-04-13T19:09:47.207Z,81.80
2018-04-13T19:12:14.804Z,81.40
2018-04-13T19:14:43.118Z,81.00
2018-04-13T19:17:11.453Z,81.10
2018-04-13T19:19:39.054Z,81.10
2018-04-13T19:22:06.653Z,80.30
2018-04-13T19:24:34.184Z,80.60
2018-04-13T19:27:02.478Z,80.70
2018-04-13T19:29:30.793Z,80.10
2018-04-13T19:31:58.344Z,80.60
2018-04-13T19:34:26.620Z,80.90
2018-04-13T19:36:54.158Z,80.70
2018-04-13T19:39:21.723Z,80.30
2018-04-13T19:41:49.707Z,81.10
2018-04-13T19:44:17.277Z,82.30
2018-04-13T19:46:44.932Z,83.50
2018-04-13T19:49:12.488Z,83.50
2018-04-13T19:51:40.055Z,84.40
2018-04-13T19:54:07.564Z,83.00
2018-04-13T19:56:35.112Z,82.70
2018-04-13T19:59:02.632Z,83.10
2018-04-13T20:01:30.217Z,84.00
2018-04-13T20:03:57.878Z,83.00
2018-04-13T20:06:25.514Z,83.20
2018-04-13T20:08:53.275Z,82.30
2018-04-13T20:11:21.056Z,80.60
2018-04-13T20:13:48.651Z,79.50
2018-04-13T20:16:20.202Z,82.20
2018-04-13T20:18:47.732Z,81.70
2018-04-13T20:21:15.310Z,80.80
2018-04-13T20:23:43.785Z,82.80
2018-04-13T20:26:11.297Z,82.70
2018-04-13T20:28:39.057Z,83.10
2018-04-13T20:31:07.506Z,82.30
2018-04-13T20:33:35.034Z,82.20
2018-04-13T20:36:02.657Z,82.40
2018-04-13T20:38:30.381Z,82.50
2018-04-13T20:40:57.892Z,81.80
2018-04-13T20:43:25.597Z,81.90
2018-04-13T20:45:54.013Z,81.50
2018-04-13T20:48:21.504Z,81.50
2018-04-13T20:50:49.076Z,81.70
2018-04-13T20:53:16.586Z,81.60
2018-04-13T20:55:44.111Z,82.20
2018-04-13T20:58:11.666Z,82.70
2018-04-13T21:00:39.218Z,81.60
2018-04-13T21:03:07.515Z,81.50
2018-04-13T21:05:35.805Z,81.80
2018-04-13T21:08:04.195Z,80.70
2018-04-13T21:10:32.571Z,80.20
2018-04-13T21:13:00.136Z,80.20
2018-04-13T21:15:27.653Z,80.50
2018-04-13T21:17:55.142Z,79.90
2018-04-13T21:20:22.769Z,80.10
2018-04-13T21:22:51.121Z,73.70
2018-04-13T21:25:18.716Z,73.50
2018-04-13T21:27:46.208Z,73.90
2018-04-13T21:30:14.483Z,77.30
2018-04-13T21:32:42.769Z,78.20
2018-04-13T21:35:10.319Z,78.20
2018-04-13T21:37:38.755Z,78.60
2018-04-13T21:40:06.312Z,78.60
2018-04-13T21:42:34.591Z,78.30
2018-04-13T21:45:02.181Z,78.20
2018-04-13T21:47:30.511Z,76.00
2018-04-13T21:50:00.883Z,76.00
2018-04-13T21:52:31.455Z,75.80
2018-04-13T21:55:05.865Z,74.70
2018-04-13T21:57:33.391Z,74.70
2018-04-13T22:00:00.888Z,74.70
2018-04-13T22:02:28.405Z,71.10
2018-04-13T22:04:55.901Z,71.60
2018-04-13T22:07:23.427Z,72.10
2018-04-13T22:09:50.932Z,70.20
2018-04-13T22:12:30.378Z,71.10
2018-04-13T22:14:57.969Z,70.20
2018-04-13T22:17:25.506Z,69.70
2018-04-13T22:19:53.011Z,69.70
2018-04-13T22:22:20.640Z,69.40
2018-04-13T22:24:49.027Z,70.10
2018-04-13T22:27:17.295Z,71.10
2018-04-13T22:29:44.783Z,70.90
2018-04-13T22:32:13.076Z,71.30
2018-04-13T22:34:41.468Z,71.30
2018-04-13T22:37:09.759Z,71.40
2018-04-13T22:39:38.021Z,72.10
2018-04-13T22:42:05.613Z,72.10
2018-04-13T22:44:33.387Z,72.40
2018-04-13T22:47:01.801Z,73.70
2018-04-13T22:49:29.330Z,73.70
2018-04-13T22:51:56.858Z,74.00
2018-04-13T22:54:24.377Z,74.90
2018-04-13T22:56:51.860Z,75.20
2018-04-13T22:59:20.168Z,76.10
2018-04-13T23:01:47.680Z,76.10
2018-04-13T23:04:15.283Z,76.40
2018-04-13T23:06:42.804Z,77.30
2018-04-13T23:09:10.406Z,78.00
2018-04-13T23:11:38.034Z,78.00
2018-04-13T23:14:05.535Z,78.40
2018-04-13T23:16:34.467Z,79.00
2018-04-13T23:19:02.759Z,78.70
2018-04-13T23:21:30.245Z,78.70
2018-04-13T23:23:57.749Z,78.90
2018-04-13T23:26:25.301Z,79.50
2018-04-13T23:28:53.716Z,77.60
2018-04-13T23:31:21.225Z,77.60
2018-04-13T23:33:48.715Z,77.70
2018-04-13T23:36:17.308Z,76.50
2018-04-13T23:38:45.586Z,77.40
2018-04-13T23:41:13.077Z,77.40
2018-04-13T23:43:41.370Z,78.50
2018-04-13T23:46:08.927Z,78.50
2018-04-13T23:48:37.405Z,78.50
2018-04-13T23:51:04.885Z,78.50
2018-04-13T23:53:33.144Z,79.30
2018-04-13T23:56:00.660Z,79.30
2018-04-13T23:58:28.175Z,79.10
